createdAt,value
2023-07-30T00:02:11.234Z,14.55
2023-07-30T00:04:42.335Z,14.61
2023-07-30T00:07:12.414Z,14.68
2023-07-30T00:09:40.669Z,14.75
2023-07-30T00:12:11.242Z,14.79
2023-07-30T00:14:41.373Z,14.80
2023-07-30T00:17:12.833Z,14.78
2023-07-30T00:19:45.253Z,14.83
2023-07-30T00:22:14.577Z,14.77
2023-07-30T00:24:42.937Z,14.77
2023-07-30T00:27:12.740Z,14.73
2023-07-30T00:29:43.256Z,14.68
2023-07-30T00:32:17.170Z,14.63
2023-07-30T00:34:46.598Z,14.59
2023-07-30T00:37:15.542Z,14.53
2023-07-30T00:39:47.076Z,14.51
2023-07-30T00:42:15.356Z,14.54
2023-07-30T00:44:47.578Z,14.57
2023-07-30T00:47:16.069Z,14.62
2023-07-30T00:49:44.348Z,14.64
2023-07-30T00:52:15.823Z,14.66
2023-07-30T00:54:45.812Z,14.69
2023-07-30T00:57:17.771Z,14.71
2023-07-30T00:59:50.511Z,14.75
2023-07-30T01:02:20.374Z,14.77
2023-07-30T01:04:50.186Z,14.79
2023-07-30T01:07:18.444Z,14.82
2023-07-30T01:09:47.412Z,14.82
2023-07-30T01:12:18.321Z,14.84
2023-07-30T01:14:50.729Z,14.80
2023-07-30T01:17:20.277Z,14.74
2023-07-30T01:19:55.736Z,14.67
2023-07-30T01:22:28.006Z,14.66
2023-07-30T01:24:56.637Z,14.58
2023-07-30T01:27:28.153Z,14.54
2023-07-30T01:30:07.474Z,14.57
2023-07-30T01:32:36.625Z,14.62
2023-07-30T01:35:07.784Z,14.64
2023-07-30T01:37:41.033Z,14.69
2023-07-30T01:40:11.306Z,14.74
2023-07-30T01:42:39.822Z,14.75
2023-07-30T01:45:10.555Z,14.76
2023-07-30T01:47:38.825Z,14.77
2023-07-30T01:50:09.467Z,14.75
2023-07-30T01:52:38.770Z,14.72
2023-07-30T01:55:08.125Z,14.70
2023-07-30T01:57:36.566Z,14.66
2023-07-30T02:00:05.664Z,14.56
2023-07-30T02:02:36.762Z,14.51
2023-07-30T02:05:06.895Z,14.47
2023-07-30T02:07:35.839Z,14.43
2023-07-30T02:10:05.980Z,14.40
2023-07-30T02:12:33.887Z,14.39
2023-07-30T02:15:01.946Z,14.39
2023-07-30T02:17:30.159Z,14.35
2023-07-30T02:19:59.519Z,14.37
2023-07-30T02:22:27.891Z,14.40
2023-07-30T02:24:58.436Z,14.39
2023-07-30T02:27:28.053Z,14.37
2023-07-30T02:29:56.079Z,14.34
2023-07-30T02:32:25.479Z,14.35
2023-07-30T02:34:53.636Z,14.37
2023-07-30T02:37:22.064Z,14.41
2023-07-30T02:39:50.414Z,14.44
2023-07-30T02:42:18.629Z,14.40
2023-07-30T02:44:49.852Z,14.40
2023-07-30T02:47:18.393Z,14.38
2023-07-30T02:49:50.763Z,14.33
2023-07-30T02:52:20.033Z,14.30
2023-07-30T02:54:50.544Z,14.27
2023-07-30T02:57:20.062Z,14.24
2023-07-30T02:59:50.638Z,14.24
2023-07-30T03:02:21.921Z,14.25
2023-07-30T03:04:51.258Z,14.24
2023-07-30T03:07:20.093Z,14.20
2023-07-30T03:09:48.508Z,14.19
2023-07-30T03:12:16.802Z,14.15
2023-07-30T03:14:44.977Z,14.14
2023-07-30T03:17:17.110Z,14.16
2023-07-30T03:19:45.532Z,14.21
2023-07-30T03:22:13.639Z,14.23
2023-07-30T03:24:41.725Z,14.22
2023-07-30T03:27:10.043Z,14.22
2023-07-30T03:29:41.023Z,14.21
2023-07-30T03:32:10.642Z,14.24
2023-07-30T03:34:42.282Z,14.24
2023-07-30T03:37:10.594Z,14.25
2023-07-30T03:39:40.132Z,14.27
2023-07-30T03:42:08.829Z,14.32
2023-07-30T03:44:37.109Z,14.36
2023-07-30T03:47:05.871Z,14.40
2023-07-30T03:49:35.218Z,14.42
2023-07-30T03:52:17.701Z,14.40
2023-07-30T03:54:46.934Z,14.40
2023-07-30T03:57:16.026Z,14.32
2023-07-30T03:59:44.138Z,14.26
2023-07-30T04:02:16.715Z,14.21
2023-07-30T04:04:46.020Z,14.15
2023-07-30T04:07:15.620Z,14.14
2023-07-30T04:09:45.414Z,14.13
2023-07-30T04:12:14.600Z,14.16
2023-07-30T04:14:43.512Z,14.21
2023-07-30T04:17:11.672Z,14.23
2023-07-30T04:19:39.943Z,14.27
2023-07-30T04:22:08.651Z,14.20
2023-07-30T04:24:38.347Z,14.10
2023-07-30T04:27:07.070Z,14.03
2023-07-30T04:29:35.418Z,13.98
2023-07-30T04:32:06.410Z,13.97
2023-07-30T04:34:34.936Z,13.99
2023-07-30T04:37:03.245Z,14.03
2023-07-30T04:39:35.510Z,14.11
2023-07-30T04:42:05.939Z,14.15
2023-07-30T04:44:35.090Z,14.22
2023-07-30T04:47:03.863Z,14.24
2023-07-30T04:49:32.319Z,14.27
2023-07-30T04:52:02.063Z,14.30
2023-07-30T04:54:30.182Z,14.32
2023-07-30T04:56:58.768Z,14.37
2023-07-30T04:59:30.582Z,14.42
2023-07-30T05:01:59.436Z,14.45
2023-07-30T05:04:27.596Z,14.49
2023-07-30T05:06:55.906Z,14.51
2023-07-30T05:09:24.351Z,14.51
2023-07-30T05:11:52.390Z,14.53
2023-07-30T05:14:22.734Z,14.56
2023-07-30T05:16:52.262Z,14.62
2023-07-30T05:19:20.812Z,14.66
2023-07-30T05:21:48.999Z,14.67
2023-07-30T05:24:17.170Z,14.67
2023-07-30T05:26:46.846Z,14.73
2023-07-30T05:29:15.249Z,14.73
2023-07-30T05:31:45.711Z,14.74
2023-07-30T05:34:18.211Z,14.78
2023-07-30T05:36:46.994Z,14.77
2023-07-30T05:39:17.979Z,14.78
2023-07-30T05:41:48.237Z,14.73
2023-07-30T05:44:16.295Z,14.71
2023-07-30T05:46:49.053Z,14.73
2023-07-30T05:49:19.647Z,14.77
2023-07-30T05:51:47.865Z,14.86
2023-07-30T05:54:16.096Z,14.93
2023-07-30T05:56:47.253Z,15.01
2023-07-30T05:59:19.034Z,15.04
2023-07-30T06:01:49.151Z,15.05
2023-07-30T06:04:20.163Z,15.15
2023-07-30T06:06:50.541Z,15.36
2023-07-30T06:09:18.903Z,15.55
2023-07-30T06:11:47.013Z,15.61
2023-07-30T06:14:15.398Z,15.64
2023-07-30T06:16:48.910Z,15.55
2023-07-30T06:19:18.834Z,15.51
2023-07-30T06:21:47.180Z,15.55
2023-07-30T06:24:15.461Z,15.64
2023-07-30T06:26:43.919Z,15.61
2023-07-30T06:29:12.080Z,15.68
2023-07-30T06:31:46.620Z,15.74
2023-07-30T06:34:15.072Z,15.77
2023-07-30T06:36:45.571Z,15.81
2023-07-30T06:39:13.762Z,15.84
2023-07-30T06:41:48.504Z,15.90
2023-07-30T06:44:17.870Z,16.04
2023-07-30T06:46:46.238Z,16.10
2023-07-30T06:50:15.452Z,15.99
2023-07-30T06:52:46.305Z,15.83
2023-07-30T06:55:14.728Z,15.77
2023-07-30T06:57:46.459Z,15.85
2023-07-30T07:00:28.781Z,16.00
2023-07-30T07:03:00.184Z,16.07
2023-07-30T07:06:04.302Z,16.31
2023-07-30T07:08:35.356Z,16.33
2023-07-30T07:11:04.132Z,16.62
2023-07-30T07:13:32.372Z,16.90
2023-07-30T07:16:00.425Z,17.11
2023-07-30T07:18:28.935Z,17.20
2023-07-30T07:20:57.105Z,17.21
2023-07-30T07:23:25.606Z,17.19
2023-07-30T07:25:55.515Z,17.24
2023-07-30T07:28:24.073Z,17.33
2023-07-30T07:30:52.827Z,17.33
2023-07-30T07:33:21.287Z,17.32
2023-07-30T07:35:50.449Z,17.32
2023-07-30T07:38:19.289Z,17.30
2023-07-30T07:40:47.420Z,17.26
2023-07-30T07:43:17.156Z,17.36
2023-07-30T07:45:45.315Z,17.70
2023-07-30T07:48:16.046Z,17.98
2023-07-30T07:50:44.560Z,18.11
2023-07-30T07:53:12.790Z,18.37
2023-07-30T07:55:41.527Z,18.79
2023-07-30T07:58:10.443Z,19.20
2023-07-30T08:00:42.740Z,19.46
2023-07-30T08:03:11.407Z,19.60
2023-07-30T08:05:39.690Z,19.62
2023-07-30T08:08:08.548Z,19.63
2023-07-30T08:10:45.146Z,19.76
2023-07-30T08:13:13.587Z,19.84
2023-07-30T08:15:43.425Z,19.85
2023-07-30T08:18:13.410Z,19.79
2023-07-30T08:20:41.616Z,20.00
2023-07-30T08:23:10.673Z,19.85
2023-07-30T08:25:41.504Z,19.71
2023-07-30T08:28:10.923Z,19.70
2023-07-30T08:30:39.359Z,19.76
2023-07-30T08:33:11.581Z,20.53
2023-07-30T08:35:39.942Z,21.09
2023-07-30T08:38:08.648Z,21.44
2023-07-30T08:40:40.983Z,21.81
2023-07-30T08:43:10.206Z,22.30
2023-07-30T08:45:38.634Z,22.49
2023-07-30T08:48:08.700Z,22.51
2023-07-30T08:50:37.349Z,22.44
2023-07-30T08:53:06.729Z,21.98
2023-07-30T08:55:36.733Z,21.77
2023-07-30T09:00:53.429Z,21.95
2023-07-30T09:03:25.467Z,21.83
2023-07-30T09:05:53.669Z,21.68
2023-07-30T09:08:25.125Z,21.69
2023-07-30T09:10:53.433Z,21.89
2023-07-30T09:13:25.070Z,21.99
2023-07-30T09:15:54.289Z,21.78
2023-07-30T09:18:24.155Z,21.43
2023-07-30T09:20:52.572Z,21.10
2023-07-30T09:23:21.842Z,20.83
2023-07-30T09:25:51.598Z,20.59
2023-07-30T09:28:21.286Z,20.47
2023-07-30T09:30:52.280Z,20.18
2023-07-30T09:33:24.313Z,19.78
2023-07-30T09:35:54.757Z,19.46
2023-07-30T09:38:23.191Z,19.46
2023-07-30T09:40:52.201Z,19.55
2023-07-30T09:43:20.909Z,19.61
2023-07-30T09:45:49.627Z,19.38
2023-07-30T09:48:18.238Z,19.30
2023-07-30T09:50:48.257Z,19.25
2023-07-30T09:53:18.027Z,19.14
2023-07-30T09:55:50.717Z,19.22
2023-07-30T09:58:19.204Z,19.27
2023-07-30T10:00:48.173Z,19.15
2023-07-30T10:03:18.252Z,18.96
2023-07-30T10:05:50.549Z,18.72
2023-07-30T10:08:24.115Z,18.47
2023-07-30T10:10:56.410Z,18.34
2023-07-30T10:13:25.554Z,18.27
2023-07-30T10:15:53.798Z,18.13
2023-07-30T10:18:24.718Z,18.02
2023-07-30T10:20:58.584Z,17.94
2023-07-30T10:23:30.655Z,17.82
2023-07-30T10:25:58.757Z,17.79
2023-07-30T10:28:34.573Z,17.78
2023-07-30T10:31:06.351Z,17.87
2023-07-30T10:33:51.553Z,18.02
2023-07-30T10:36:33.877Z,18.20
2023-07-30T10:39:12.663Z,18.31
2023-07-30T10:41:43.945Z,18.46
2023-07-30T10:44:20.890Z,18.50
2023-07-30T10:46:49.046Z,18.43
2023-07-30T10:49:17.626Z,18.43
2023-07-30T10:51:47.101Z,18.44
2023-07-30T10:54:16.958Z,18.51
2023-07-30T10:57:12.730Z,18.67
2023-07-30T10:59:44.246Z,19.10
2023-07-30T11:02:14.512Z,19.44
2023-07-30T11:04:42.793Z,19.70
2023-07-30T11:07:19.402Z,20.01
2023-07-30T11:09:49.204Z,20.21
2023-07-30T11:12:22.524Z,20.33
2023-07-30T11:14:52.999Z,20.46
2023-07-30T11:17:22.020Z,20.69
2023-07-30T11:19:51.336Z,20.84
2023-07-30T11:22:34.876Z,21.05
2023-07-30T11:25:09.170Z,21.14
2023-07-30T11:27:47.952Z,21.23
2023-07-30T11:30:16.340Z,21.28
2023-07-30T11:32:46.137Z,21.36
2023-07-30T11:35:17.888Z,21.42
2023-07-30T11:40:40.550Z,21.40
2023-07-30T11:43:30.293Z,21.50
2023-07-30T11:46:18.526Z,21.59
2023-07-30T11:48:48.508Z,21.79
2023-07-30T11:52:08.795Z,21.79
2023-07-30T11:54:38.665Z,21.65
2023-07-30T11:57:07.760Z,21.47
2023-07-30T12:00:21.362Z,21.33
2023-07-30T12:05:56.587Z,20.96
2023-07-30T12:08:45.636Z,21.03
2023-07-30T12:11:42.588Z,21.32
2023-07-30T12:14:15.735Z,21.44
2023-07-30T12:16:44.295Z,21.34
2023-07-30T12:19:12.864Z,21.33
2023-07-30T12:21:41.164Z,21.40
2023-07-30T12:24:09.534Z,21.32
2023-07-30T12:26:39.302Z,21.26
2023-07-30T12:29:07.703Z,21.24
2023-07-30T12:31:36.122Z,21.34
2023-07-30T12:34:04.281Z,21.29
2023-07-30T12:36:32.543Z,21.22
2023-07-30T12:39:00.590Z,21.33
2023-07-30T12:41:30.844Z,21.36
2023-07-30T12:44:01.998Z,21.27
2023-07-30T12:46:31.389Z,21.19
2023-07-30T12:49:03.852Z,21.09
2023-07-30T12:51:32.203Z,20.92
2023-07-30T12:54:03.039Z,20.82
2023-07-30T12:56:31.595Z,20.73
2023-07-30T13:24:34.309Z,20.25
2023-07-30T13:27:02.823Z,20.10
2023-07-30T13:29:31.028Z,19.99
2023-07-30T13:31:59.620Z,19.89
2023-07-30T13:34:27.855Z,19.88
2023-07-30T13:36:56.091Z,19.85
2023-07-30T13:39:24.223Z,19.84
2023-07-30T13:41:53.717Z,19.79
2023-07-30T13:44:22.306Z,19.77
2023-07-30T13:46:51.649Z,19.76
2023-07-30T13:49:19.950Z,19.65
2023-07-30T13:51:48.122Z,19.69
2023-07-30T13:54:16.310Z,19.74
2023-07-30T13:56:44.457Z,19.67
2023-07-30T13:59:14.145Z,19.40
2023-07-30T14:01:42.564Z,19.20
2023-07-30T14:04:10.914Z,19.13
2023-07-30T14:06:39.383Z,18.96
2023-07-30T14:09:08.526Z,18.78
2023-07-30T14:11:37.179Z,18.67
2023-07-30T14:14:06.867Z,18.52
2023-07-30T14:16:36.600Z,18.35
2023-07-30T14:19:05.115Z,18.26
2023-07-30T14:21:33.491Z,18.28
2023-07-30T14:24:01.643Z,18.24
2023-07-30T14:26:29.719Z,18.22
2023-07-30T14:28:57.898Z,18.23
2023-07-30T14:31:26.089Z,18.30
2023-07-30T14:33:55.732Z,18.35
2023-07-30T14:36:25.269Z,18.29
2023-07-30T14:38:53.464Z,18.25
2023-07-30T14:41:22.012Z,18.30
2023-07-30T14:43:50.230Z,18.33
2023-07-30T14:46:18.327Z,18.38
2023-07-30T14:48:46.758Z,18.45
2023-07-30T14:51:17.916Z,18.56
2023-07-30T14:53:46.111Z,18.67
2023-07-30T14:56:14.280Z,18.81
2023-07-30T14:58:43.447Z,18.84
2023-07-30T15:01:12.725Z,18.90
2023-07-30T15:03:41.005Z,18.97
2023-07-30T15:06:09.466Z,19.01
2023-07-30T15:08:39.341Z,19.10
2023-07-30T15:11:08.777Z,19.10
2023-07-30T15:13:37.361Z,19.06
2023-07-30T15:16:05.954Z,19.06
2023-07-30T15:18:34.518Z,19.10
2023-07-30T15:21:02.664Z,19.03
2023-07-30T15:23:31.140Z,18.92
2023-07-30T15:26:00.542Z,18.81
2023-07-30T15:28:28.713Z,18.73
2023-07-30T15:30:58.639Z,18.69
2023-07-30T15:33:26.818Z,18.67
2023-07-30T15:35:54.888Z,18.66
2023-07-30T15:38:24.226Z,18.70
2023-07-30T15:40:52.333Z,18.71
2023-07-30T15:43:21.926Z,18.68
2023-07-30T15:45:49.966Z,18.68
2023-07-30T15:48:18.110Z,18.62
2023-07-30T15:50:46.299Z,18.57
2023-07-30T15:53:14.463Z,18.56
2023-07-30T15:55:42.643Z,18.53
2023-07-30T15:58:10.804Z,18.55
2023-07-30T16:00:40.504Z,18.57
2023-07-30T16:03:10.046Z,18.61
2023-07-30T16:05:38.555Z,18.64
2023-07-30T16:08:06.814Z,18.66
2023-07-30T16:10:35.071Z,18.72
2023-07-30T16:13:03.589Z,18.74
2023-07-30T16:15:32.369Z,18.67
2023-07-30T16:18:02.430Z,18.58
2023-07-30T16:20:30.333Z,18.48
2023-07-30T16:22:58.524Z,18.42
2023-07-30T16:25:26.773Z,18.34
2023-07-30T16:27:55.109Z,18.27
2023-07-30T16:30:25.416Z,18.19
2023-07-30T16:32:55.003Z,18.13
2023-07-30T16:35:24.543Z,18.14
2023-07-30T16:37:52.623Z,18.14
2023-07-30T16:40:21.875Z,18.17
2023-07-30T16:42:50.126Z,18.19
2023-07-30T16:45:18.906Z,18.21
2023-07-30T16:47:48.296Z,18.31
2023-07-30T16:50:16.681Z,18.42
2023-07-30T16:52:46.213Z,18.54
2023-07-30T16:55:14.393Z,18.57
2023-07-30T16:57:49.710Z,18.61
2023-07-30T17:00:17.987Z,18.53
2023-07-30T17:02:47.674Z,18.47
2023-07-30T17:05:18.870Z,18.56
2023-07-30T17:07:49.789Z,18.91
2023-07-30T17:10:18.367Z,19.09
2023-07-30T17:12:46.772Z,19.11
2023-07-30T17:15:15.626Z,18.98
2023-07-30T17:17:44.350Z,18.91
2023-07-30T17:20:13.830Z,18.79
2023-07-30T17:22:41.940Z,18.60
2023-07-30T17:25:12.334Z,18.47
2023-07-30T17:27:40.380Z,18.43
2023-07-30T17:30:09.130Z,18.50
2023-07-30T17:32:37.601Z,18.59
2023-07-30T17:35:07.594Z,18.69
2023-07-30T17:37:35.913Z,18.89
2023-07-30T17:40:04.284Z,19.01
2023-07-30T17:42:33.859Z,19.15
2023-07-30T17:45:02.252Z,19.09
2023-07-30T17:47:30.499Z,18.99
2023-07-30T17:49:58.646Z,19.00
2023-07-30T17:52:26.855Z,19.02
2023-07-30T17:54:54.898Z,18.96
2023-07-30T17:57:23.373Z,18.91
2023-07-30T17:59:52.919Z,18.81
2023-07-30T18:02:22.505Z,18.65
2023-07-30T18:04:50.969Z,18.48
2023-07-30T18:07:19.142Z,18.36
2023-07-30T18:09:47.234Z,18.34
2023-07-30T18:12:15.750Z,18.31
2023-07-30T18:14:43.830Z,18.33
2023-07-30T18:17:13.365Z,18.37
2023-07-30T18:19:41.426Z,18.43
2023-07-30T18:22:09.938Z,18.50
2023-07-30T18:25:14.970Z,18.54
2023-07-30T18:27:49.784Z,18.59
2023-07-30T18:30:18.027Z,18.72
2023-07-30T18:32:49.012Z,18.83
2023-07-30T18:35:17.345Z,18.92
2023-07-30T18:37:46.055Z,19.07
2023-07-30T18:40:14.479Z,19.16
2023-07-30T18:42:42.588Z,19.26
2023-07-30T18:45:11.555Z,19.28
2023-07-30T18:47:39.792Z,19.27
2023-07-30T18:50:10.912Z,19.23
2023-07-30T18:52:39.299Z,19.16
2023-07-30T18:55:08.585Z,19.10
2023-07-30T18:57:36.749Z,19.07
2023-07-30T19:00:06.426Z,18.99
2023-07-30T19:02:34.722Z,18.99
2023-07-30T19:05:02.958Z,18.99
2023-07-30T19:07:33.738Z,19.07
2023-07-30T19:10:01.850Z,19.10
2023-07-30T19:12:30.988Z,19.07
2023-07-30T19:15:00.057Z,19.14
2023-07-30T19:17:28.712Z,19.14
2023-07-30T19:19:58.216Z,19.10
2023-07-30T19:22:26.446Z,19.05
2023-07-30T19:24:55.939Z,18.91
2023-07-30T19:27:25.576Z,18.82
2023-07-30T19:29:54.859Z,18.76
2023-07-30T19:32:23.559Z,18.74
2023-07-30T19:34:51.973Z,18.69
2023-07-30T19:37:20.141Z,18.65
2023-07-30T19:39:48.179Z,18.59
2023-07-30T19:42:17.669Z,18.52
2023-07-30T19:44:45.811Z,18.44
2023-07-30T19:47:13.884Z,18.38
2023-07-30T19:49:42.429Z,18.35
2023-07-30T19:52:11.161Z,18.35
2023-07-30T19:54:39.492Z,18.37
2023-07-30T19:57:08.589Z,18.37
2023-07-30T19:59:38.301Z,18.38
2023-07-30T20:02:07.532Z,18.39
2023-07-30T20:04:36.031Z,18.34
2023-07-30T20:07:04.499Z,18.27
2023-07-30T20:09:35.199Z,18.25
2023-07-30T20:12:03.287Z,18.22
2023-07-30T20:14:31.697Z,18.20
2023-07-30T20:17:01.179Z,18.13
2023-07-30T20:19:29.598Z,18.06
2023-07-30T20:21:57.808Z,17.99
2023-07-30T20:24:28.577Z,17.96
2023-07-30T20:26:56.799Z,17.94
2023-07-30T20:29:24.992Z,17.95
2023-07-30T20:31:53.163Z,17.96
2023-07-30T20:34:24.096Z,17.98
2023-07-30T20:36:52.262Z,17.98
2023-07-30T20:39:20.380Z,17.96
2023-07-30T20:41:48.432Z,17.95
2023-07-30T20:44:16.687Z,17.93
2023-07-30T20:46:45.180Z,17.92
2023-07-30T20:49:13.366Z,17.89
2023-07-30T20:51:42.814Z,17.85
2023-07-30T20:54:11.229Z,17.86
2023-07-30T20:56:39.508Z,17.80
2023-07-30T20:59:08.481Z,17.75
2023-07-30T21:01:36.622Z,17.71
2023-07-30T21:04:04.877Z,17.71
2023-07-30T21:06:32.984Z,17.73
2023-07-30T21:09:02.435Z,17.74
2023-07-30T21:11:32.362Z,17.77
2023-07-30T21:14:02.605Z,17.79
2023-07-30T21:16:30.708Z,17.84
2023-07-30T21:18:59.009Z,17.84
2023-07-30T21:21:27.728Z,17.78
2023-07-30T21:23:55.985Z,17.72
2023-07-30T21:26:26.009Z,17.68
2023-07-30T21:28:54.147Z,17.65
2023-07-30T21:31:23.326Z,17.66
2023-07-30T21:33:51.597Z,17.65
2023-07-30T21:36:19.800Z,17.63
2023-07-30T21:38:47.988Z,17.63
2023-07-30T21:41:16.067Z,17.64
2023-07-30T21:43:48.033Z,17.64
2023-07-30T21:46:16.256Z,17.64
2023-07-30T21:48:44.481Z,17.65
2023-07-30T21:51:12.682Z,17.65
2023-07-30T21:53:41.400Z,17.66
2023-07-30T21:56:09.686Z,17.64
2023-07-30T21:58:38.056Z,17.62
2023-07-30T22:01:07.733Z,17.59
2023-07-30T22:03:36.085Z,17.57
2023-07-30T22:06:04.229Z,17.52
2023-07-30T22:08:34.799Z,17.47
2023-07-30T22:11:02.936Z,17.44
2023-07-30T22:13:32.202Z,17.39
2023-07-30T22:16:02.459Z,17.33
2023-07-30T22:18:32.404Z,17.25
2023-07-30T22:21:00.536Z,17.22
2023-07-30T22:23:29.875Z,17.19
2023-07-30T22:26:00.855Z,17.18
2023-07-30T22:28:29.298Z,17.11
2023-07-30T22:30:57.434Z,17.05
2023-07-30T22:33:25.704Z,17.01
2023-07-30T22:35:57.996Z,17.02
2023-07-30T22:38:26.204Z,17.05
2023-07-30T22:40:54.343Z,17.03
2023-07-30T22:43:23.682Z,17.03
2023-07-30T22:45:52.168Z,17.01
2023-07-30T22:48:20.304Z,17.02
2023-07-30T22:50:48.371Z,17.06
2023-07-30T22:53:18.081Z,17.08
2023-07-30T22:55:46.729Z,17.10
2023-07-30T22:58:17.497Z,17.11
2023-07-30T23:00:45.802Z,17.12
2023-07-30T23:03:14.270Z,17.14
2023-07-30T23:05:42.564Z,17.15
2023-07-30T23:08:10.721Z,17.18
2023-07-30T23:10:40.446Z,17.17
2023-07-30T23:13:09.929Z,17.19
2023-07-30T23:15:38.177Z,17.21
2023-07-30T23:18:06.526Z,17.20
2023-07-30T23:20:34.788Z,17.18
2023-07-30T23:23:03.410Z,17.17
2023-07-30T23:25:31.510Z,17.17
2023-07-30T23:28:01.922Z,17.16
2023-07-30T23:30:31.174Z,17.14
2023-07-30T23:32:59.291Z,17.11
2023-07-30T23:35:29.739Z,17.08
2023-07-30T23:37:57.859Z,17.06
2023-07-30T23:40:27.400Z,17.05
2023-07-30T23:42:55.649Z,17.05
2023-07-30T23:45:25.209Z,17.03
2023-07-30T23:47:53.492Z,16.98
2023-07-30T23:50:21.757Z,16.92
2023-07-30T23:52:49.814Z,16.89
2023-07-30T23:55:18.017Z,16.90
2023-07-30T23:57:46.740Z,16.90
